sensor_id;sensor_type;location;lat;lon;timestamp;temperature;humidity
21662;DHT22;10992;48.170;8.596;2022-08-03T00:01:35;17.70;99.90
21662;DHT22;10992;48.170;8.596;2022-08-03T00:04:03;17.70;99.90
21662;DHT22;10992;48.170;8.596;2022-08-03T00:06:31;17.50;99.90
21662;DHT22;10992;48.170;8.596;2022-08-03T00:09:04;17.50;99.90
21662;DHT22;10992;48.170;8.596;2022-08-03T00:11:31;17.40;99.90
21662;DHT22;10992;48.170;8.596;2022-08-03T00:13:58;17.40;99.90
21662;DHT22;10992;48.170;8.596;2022-08-03T00:16:26;17.40;99.90
21662;DHT22;10992;48.170;8.596;2022-08-03T00:18:53;17.40;99.90
21662;DHT22;10992;48.170;8.596;2022-08-03T00:21:20;17.40;99.90
21662;DHT22;10992;48.170;8.596;2022-08-03T00:23:47;17.50;99.90
21662;DHT22;10992;48.170;8.596;2022-08-03T00:26:19;17.50;99.90
21662;DHT22;10992;48.170;8.596;2022-08-03T00:28:46;17.50;99.90
21662;DHT22;10992;48.170;8.596;2022-08-03T00:31:13;17.50;99.90
21662;DHT22;10992;48.170;8.596;2022-08-03T00:33:40;17.40;99.90
21662;DHT22;10992;48.170;8.596;2022-08-03T00:36:26;17.30;99.90
21662;DHT22;10992;48.170;8.596;2022-08-03T00:38:54;17.30;99.90
21662;DHT22;10992;48.170;8.596;2022-08-03T00:41:24;17.20;99.90
21662;DHT22;10992;48.170;8.596;2022-08-03T00:43:51;17.20;99.90
21662;DHT22;10992;48.170;8.596;2022-08-03T00:46:18;17.20;99.90
21662;DHT22;10992;48.170;8.596;2022-08-03T00:48:49;17.10;99.90
21662;DHT22;10992;48.170;8.596;2022-08-03T00:51:17;17.00;99.90
21662;DHT22;10992;48.170;8.596;2022-08-03T00:53:45;17.00;99.90
21662;DHT22;10992;48.170;8.596;2022-08-03T00:56:13;17.00;99.90
21662;DHT22;10992;48.170;8.596;2022-08-03T00:58:40;16.90;99.90
21662;DHT22;10992;48.170;8.596;2022-08-03T01:01:09;16.90;99.90
21662;DHT22;10992;48.170;8.596;2022-08-03T01:03:38;16.90;99.90
21662;DHT22;10992;48.170;8.596;2022-08-03T01:06:17;16.80;99.90
21662;DHT22;10992;48.170;8.596;2022-08-03T01:09:01;16.80;99.90
21662;DHT22;10992;48.170;8.596;2022-08-03T01:11:37;16.70;99.90
21662;DHT22;10992;48.170;8.596;2022-08-03T01:14:33;16.70;99.90
21662;DHT22;10992;48.170;8.596;2022-08-03T01:17:16;16.60;99.90
21662;DHT22;10992;48.170;8.596;2022-08-03T01:20:05;16.70;99.90
21662;DHT22;10992;48.170;8.596;2022-08-03T01:22:39;16.80;99.90
21662;DHT22;10992;48.170;8.596;2022-08-03T01:31:02;16.60;99.90
21662;DHT22;10992;48.170;8.596;2022-08-03T01:33:36;16.50;99.90
21662;DHT22;10992;48.170;8.596;2022-08-03T01:36:08;16.40;99.90
21662;DHT22;10992;48.170;8.596;2022-08-03T01:38:42;16.40;99.90
21662;DHT22;10992;48.170;8.596;2022-08-03T01:41:33;16.40;99.90
21662;DHT22;10992;48.170;8.596;2022-08-03T01:44:02;16.40;99.90
21662;DHT22;10992;48.170;8.596;2022-08-03T01:46:50;16.30;99.90
21662;DHT22;10992;48.170;8.596;2022-08-03T01:49:17;16.30;99.90
21662;DHT22;10992;48.170;8.596;2022-08-03T01:51:46;16.30;99.90
21662;DHT22;10992;48.170;8.596;2022-08-03T01:54:35;16.30;99.90
21662;DHT22;10992;48.170;8.596;2022-08-03T01:57:03;16.30;99.90
21662;DHT22;10992;48.170;8.596;2022-08-03T01:59:32;16.20;99.90
21662;DHT22;10992;48.170;8.596;2022-08-03T02:02:01;16.20;99.90
21662;DHT22;10992;48.170;8.596;2022-08-03T02:04:49;16.20;99.90
21662;DHT22;10992;48.170;8.596;2022-08-03T02:07:18;16.20;99.90
21662;DHT22;10992;48.170;8.596;2022-08-03T02:09:49;16.10;99.90
21662;DHT22;10992;48.170;8.596;2022-08-03T02:12:17;16.10;99.90
21662;DHT22;10992;48.170;8.596;2022-08-03T02:14:46;16.10;99.90
21662;DHT22;10992;48.170;8.596;2022-08-03T02:17:15;16.10;99.90
21662;DHT22;10992;48.170;8.596;2022-08-03T02:19:42;16.10;99.90
21662;DHT22;10992;48.170;8.596;2022-08-03T02:22:11;16.00;99.90
21662;DHT22;10992;48.170;8.596;2022-08-03T02:24:39;16.00;99.90
21662;DHT22;10992;48.170;8.596;2022-08-03T02:27:21;16.00;99.90
21662;DHT22;10992;48.170;8.596;2022-08-03T02:29:56;15.90;99.90
21662;DHT22;10992;48.170;8.596;2022-08-03T02:32:29;15.90;99.90
21662;DHT22;10992;48.170;8.596;2022-08-03T02:34:58;15.90;99.90
21662;DHT22;10992;48.170;8.596;2022-08-03T02:37:29;15.90;99.90
21662;DHT22;10992;48.170;8.596;2022-08-03T02:40:02;15.90;99.90
21662;DHT22;10992;48.170;8.596;2022-08-03T02:42:31;15.90;99.90
21662;DHT22;10992;48.170;8.596;2022-08-03T02:45:02;16.00;99.90
21662;DHT22;10992;48.170;8.596;2022-08-03T02:47:31;16.00;99.90
21662;DHT22;10992;48.170;8.596;2022-08-03T02:50:21;16.00;99.90
21662;DHT22;10992;48.170;8.596;2022-08-03T02:52:50;16.00;99.90
21662;DHT22;10992;48.170;8.596;2022-08-03T02:55:19;16.00;99.90
21662;DHT22;10992;48.170;8.596;2022-08-03T02:57:47;15.90;99.90
21662;DHT22;10992;48.170;8.596;2022-08-03T03:00:16;15.80;99.90
21662;DHT22;10992;48.170;8.596;2022-08-03T03:02:56;15.80;99.90
21662;DHT22;10992;48.170;8.596;2022-08-03T03:05:23;15.80;99.90
21662;DHT22;10992;48.170;8.596;2022-08-03T03:08:16;15.90;99.90
21662;DHT22;10992;48.170;8.596;2022-08-03T03:10:58;15.80;99.90
21662;DHT22;10992;48.170;8.596;2022-08-03T03:13:27;15.70;99.90
21662;DHT22;10992;48.170;8.596;2022-08-03T03:15:56;15.60;99.90
21662;DHT22;10992;48.170;8.596;2022-08-03T03:18:27;15.50;99.90
21662;DHT22;10992;48.170;8.596;2022-08-03T03:20:54;15.50;99.90
21662;DHT22;10992;48.170;8.596;2022-08-03T03:23:22;15.40;99.90
21662;DHT22;10992;48.170;8.596;2022-08-03T03:25:50;15.40;99.90
21662;DHT22;10992;48.170;8.596;2022-08-03T03:28:18;15.30;99.90
21662;DHT22;10992;48.170;8.596;2022-08-03T03:30:46;15.20;99.90
21662;DHT22;10992;48.170;8.596;2022-08-03T03:33:19;15.20;99.90
21662;DHT22;10992;48.170;8.596;2022-08-03T03:35:47;15.20;99.90
21662;DHT22;10992;48.170;8.596;2022-08-03T03:38:15;15.20;99.90
21662;DHT22;10992;48.170;8.596;2022-08-03T03:40:42;15.10;99.90
21662;DHT22;10992;48.170;8.596;2022-08-03T03:43:10;15.20;99.90
21662;DHT22;10992;48.170;8.596;2022-08-03T03:45:40;15.10;99.90
21662;DHT22;10992;48.170;8.596;2022-08-03T03:48:08;15.10;99.90
21662;DHT22;10992;48.170;8.596;2022-08-03T03:50:36;15.10;99.90
21662;DHT22;10992;48.170;8.596;2022-08-03T03:53:09;15.20;99.90
21662;DHT22;10992;48.170;8.596;2022-08-03T03:55:37;15.20;99.90
21662;DHT22;10992;48.170;8.596;2022-08-03T03:58:24;15.20;99.90
21662;DHT22;10992;48.170;8.596;2022-08-03T04:00:51;15.40;99.90
21662;DHT22;10992;48.170;8.596;2022-08-03T04:03:19;15.50;99.90
21662;DHT22;10992;48.170;8.596;2022-08-03T04:05:46;15.50;99.90
21662;DHT22;10992;48.170;8.596;2022-08-03T04:08:32;15.50;99.90
21662;DHT22;10992;48.170;8.596;2022-08-03T04:11:25;15.60;99.90
21662;DHT22;10992;48.170;8.596;2022-08-03T04:14:27;15.70;99.90
21662;DHT22;10992;48.170;8.596;2022-08-03T04:17:01;15.60;99.90
21662;DHT22;10992;48.170;8.596;2022-08-03T04:19:54;15.60;99.90
21662;DHT22;10992;48.170;8.596;2022-08-03T04:22:26;15.70;99.90
21662;DHT22;10992;48.170;8.596;2022-08-03T04:25:04;15.60;99.90
21662;DHT22;10992;48.170;8.596;2022-08-03T04:27:39;15.70;99.90
21662;DHT22;10992;48.170;8.596;2022-08-03T04:30:08;15.80;99.90
21662;DHT22;10992;48.170;8.596;2022-08-03T04:32:36;15.80;99.90
21662;DHT22;10992;48.170;8.596;2022-08-03T04:35:09;15.80;99.90
21662;DHT22;10992;48.170;8.596;2022-08-03T04:37:42;15.80;99.90
21662;DHT22;10992;48.170;8.596;2022-08-03T04:40:19;15.80;99.90
21662;DHT22;10992;48.170;8.596;2022-08-03T04:42:48;15.90;99.90
21662;DHT22;10992;48.170;8.596;2022-08-03T04:45:16;15.90;99.90
21662;DHT22;10992;48.170;8.596;2022-08-03T04:47:45;16.00;99.90
21662;DHT22;10992;48.170;8.596;2022-08-03T04:50:12;16.10;99.90
21662;DHT22;10992;48.170;8.596;2022-08-03T04:53:04;16.20;99.90
21662;DHT22;10992;48.170;8.596;2022-08-03T04:55:33;16.30;99.90
21662;DHT22;10992;48.170;8.596;2022-08-03T04:58:02;16.50;99.90
21662;DHT22;10992;48.170;8.596;2022-08-03T05:00:29;16.60;99.90
21662;DHT22;10992;48.170;8.596;2022-08-03T05:02:56;16.80;99.90
21662;DHT22;10992;48.170;8.596;2022-08-03T05:05:23;16.90;99.90
21662;DHT22;10992;48.170;8.596;2022-08-03T05:07:50;17.00;99.90
21662;DHT22;10992;48.170;8.596;2022-08-03T05:10:18;17.30;99.90
21662;DHT22;10992;48.170;8.596;2022-08-03T05:12:47;17.50;99.90
21662;DHT22;10992;48.170;8.596;2022-08-03T05:15:14;18.30;99.90
21662;DHT22;10992;48.170;8.596;2022-08-03T05:17:41;20.30;99.90
21662;DHT22;10992;48.170;8.596;2022-08-03T05:20:09;22.30;99.90
21662;DHT22;10992;48.170;8.596;2022-08-03T05:22:36;23.90;99.90
21662;DHT22;10992;48.170;8.596;2022-08-03T05:25:03;25.80;99.90
21662;DHT22;10992;48.170;8.596;2022-08-03T05:27:30;27.10;99.90
21662;DHT22;10992;48.170;8.596;2022-08-03T05:29:57;27.30;99.90
21662;DHT22;10992;48.170;8.596;2022-08-03T05:32:45;28.20;99.90
21662;DHT22;10992;48.170;8.596;2022-08-03T05:35:12;29.10;99.90
21662;DHT22;10992;48.170;8.596;2022-08-03T05:37:59;29.60;99.90
21662;DHT22;10992;48.170;8.596;2022-08-03T05:40:27;29.70;99.90
21662;DHT22;10992;48.170;8.596;2022-08-03T05:42:53;29.70;99.90
21662;DHT22;10992;48.170;8.596;2022-08-03T05:45:20;30.80;99.90
21662;DHT22;10992;48.170;8.596;2022-08-03T05:47:53;31.00;99.90
21662;DHT22;10992;48.170;8.596;2022-08-03T05:50:20;30.90;99.90
21662;DHT22;10992;48.170;8.596;2022-08-03T05:52:47;31.00;99.90
21662;DHT22;10992;48.170;8.596;2022-08-03T05:55:15;31.90;99.90
21662;DHT22;10992;48.170;8.596;2022-08-03T05:57:42;31.90;99.90
21662;DHT22;10992;48.170;8.596;2022-08-03T06:00:11;31.00;99.90
21662;DHT22;10992;48.170;8.596;2022-08-03T06:02:41;30.70;99.90
21662;DHT22;10992;48.170;8.596;2022-08-03T06:05:08;31.10;99.90
21662;DHT22;10992;48.170;8.596;2022-08-03T06:07:35;31.70;99.90
21662;DHT22;10992;48.170;8.596;2022-08-03T06:10:03;31.00;99.90
21662;DHT22;10992;48.170;8.596;2022-08-03T06:12:50;30.90;99.90
21662;DHT22;10992;48.170;8.596;2022-08-03T06:15:19;31.00;99.90
21662;DHT22;10992;48.170;8.596;2022-08-03T06:17:47;31.60;99.90
21662;DHT22;10992;48.170;8.596;2022-08-03T06:20:18;31.20;99.90
21662;DHT22;10992;48.170;8.596;2022-08-03T06:22:47;31.10;99.90
21662;DHT22;10992;48.170;8.596;2022-08-03T06:25:26;31.50;99.90
21662;DHT22;10992;48.170;8.596;2022-08-03T06:27:52;31.70;99.90
21662;DHT22;10992;48.170;8.596;2022-08-03T06:30:19;32.20;99.90
21662;DHT22;10992;48.170;8.596;2022-08-03T06:32:47;33.90;99.90
21662;DHT22;10992;48.170;8.596;2022-08-03T06:35:18;34.90;99.90
21662;DHT22;10992;48.170;8.596;2022-08-03T06:37:48;33.50;99.90
21662;DHT22;10992;48.170;8.596;2022-08-03T06:40:20;34.60;99.90
21662;DHT22;10992;48.170;8.596;2022-08-03T06:42:58;34.40;99.90
21662;DHT22;10992;48.170;8.596;2022-08-03T06:45:25;34.20;99.70
21662;DHT22;10992;48.170;8.596;2022-08-03T06:48:04;34.80;99.30
21662;DHT22;10992;48.170;8.596;2022-08-03T06:50:32;35.50;98.40
21662;DHT22;10992;48.170;8.596;2022-08-03T06:53:00;36.00;97.50
21662;DHT22;10992;48.170;8.596;2022-08-03T06:55:27;36.30;96.30
21662;DHT22;10992;48.170;8.596;2022-08-03T06:57:54;35.80;95.80
21662;DHT22;10992;48.170;8.596;2022-08-03T07:00:28;35.60;96.90
21662;DHT22;10992;48.170;8.596;2022-08-03T07:02:59;35.90;96.50
21662;DHT22;10992;48.170;8.596;2022-08-03T07:05:26;35.70;95.00
21662;DHT22;10992;48.170;8.596;2022-08-03T07:07:56;35.90;94.60
21662;DHT22;10992;48.170;8.596;2022-08-03T07:10:25;35.70;93.90
21662;DHT22;10992;48.170;8.596;2022-08-03T07:12:53;36.00;93.60
21662;DHT22;10992;48.170;8.596;2022-08-03T07:15:23;35.00;93.60
21662;DHT22;10992;48.170;8.596;2022-08-03T07:18:10;34.50;94.20
21662;DHT22;10992;48.170;8.596;2022-08-03T07:20:37;35.00;94.10
21662;DHT22;10992;48.170;8.596;2022-08-03T07:23:04;35.20;93.60
21662;DHT22;10992;48.170;8.596;2022-08-03T07:25:31;35.80;93.90
21662;DHT22;10992;48.170;8.596;2022-08-03T07:27:58;34.50;93.80
21662;DHT22;10992;48.170;8.596;2022-08-03T07:30:25;34.70;94.20
21662;DHT22;10992;48.170;8.596;2022-08-03T07:32:52;34.70;93.90
21662;DHT22;10992;48.170;8.596;2022-08-03T07:35:18;34.80;93.40
21662;DHT22;10992;48.170;8.596;2022-08-03T07:37:52;34.80;93.40
21662;DHT22;10992;48.170;8.596;2022-08-03T07:40:21;33.70;94.00
21662;DHT22;10992;48.170;8.596;2022-08-03T07:42:48;32.70;95.10
21662;DHT22;10992;48.170;8.596;2022-08-03T07:45:19;32.90;94.60
21662;DHT22;10992;48.170;8.596;2022-08-03T07:47:49;32.90;94.50
21662;DHT22;10992;48.170;8.596;2022-08-03T07:50:20;33.50;94.20
21662;DHT22;10992;48.170;8.596;2022-08-03T07:52:47;35.30;92.90
21662;DHT22;10992;48.170;8.596;2022-08-03T07:55:19;34.70;93.00
21662;DHT22;10992;48.170;8.596;2022-08-03T07:57:58;34.50;93.10
21662;DHT22;10992;48.170;8.596;2022-08-03T08:00:26;34.80;92.40
21662;DHT22;10992;48.170;8.596;2022-08-03T08:02:53;32.10;94.30
21662;DHT22;10992;48.170;8.596;2022-08-03T08:05:20;31.60;95.40
21662;DHT22;10992;48.170;8.596;2022-08-03T08:07:46;32.10;94.70
21662;DHT22;10992;48.170;8.596;2022-08-03T08:10:17;32.40;94.00
21662;DHT22;10992;48.170;8.596;2022-08-03T08:12:45;32.10;94.50
21662;DHT22;10992;48.170;8.596;2022-08-03T08:15:11;32.10;94.50
21662;DHT22;10992;48.170;8.596;2022-08-03T08:17:49;31.80;94.60
21662;DHT22;10992;48.170;8.596;2022-08-03T08:20:23;32.30;93.80
21662;DHT22;10992;48.170;8.596;2022-08-03T08:22:55;32.90;93.00
21662;DHT22;10992;48.170;8.596;2022-08-03T08:25:24;32.80;93.90
21662;DHT22;10992;48.170;8.596;2022-08-03T08:27:51;32.60;93.90
21662;DHT22;10992;48.170;8.596;2022-08-03T08:30:38;33.70;92.70
21662;DHT22;10992;48.170;8.596;2022-08-03T08:33:04;35.40;91.40
21662;DHT22;10992;48.170;8.596;2022-08-03T08:35:31;34.30;90.70
21662;DHT22;10992;48.170;8.596;2022-08-03T08:38:01;34.00;91.50
21662;DHT22;10992;48.170;8.596;2022-08-03T08:40:34;33.80;90.80
21662;DHT22;10992;48.170;8.596;2022-08-03T08:43:01;34.00;91.30
21662;DHT22;10992;48.170;8.596;2022-08-03T08:45:28;34.10;90.70
21662;DHT22;10992;48.170;8.596;2022-08-03T08:47:56;34.50;90.60
21662;DHT22;10992;48.170;8.596;2022-08-03T08:50:28;34.50;90.30
21662;DHT22;10992;48.170;8.596;2022-08-03T08:52:59;34.30;90.50
21662;DHT22;10992;48.170;8.596;2022-08-03T08:55:28;35.80;90.10
21662;DHT22;10992;48.170;8.596;2022-08-03T08:58:16;36.30;86.10
21662;DHT22;10992;48.170;8.596;2022-08-03T09:00:46;34.90;87.70
21662;DHT22;10992;48.170;8.596;2022-08-03T09:03:14;34.70;89.60
21662;DHT22;10992;48.170;8.596;2022-08-03T09:05:59;35.50;86.60
21662;DHT22;10992;48.170;8.596;2022-08-03T09:08:29;34.20;86.80
21662;DHT22;10992;48.170;8.596;2022-08-03T09:10:56;33.60;83.90
21662;DHT22;10992;48.170;8.596;2022-08-03T09:13:23;32.90;84.80
21662;DHT22;10992;48.170;8.596;2022-08-03T09:16:15;32.70;83.90
21662;DHT22;10992;48.170;8.596;2022-08-03T09:18:45;33.30;86.10
21662;DHT22;10992;48.170;8.596;2022-08-03T09:21:13;34.00;85.70
21662;DHT22;10992;48.170;8.596;2022-08-03T09:23:59;34.30;84.80
21662;DHT22;10992;48.170;8.596;2022-08-03T09:26:35;35.20;83.80
21662;DHT22;10992;48.170;8.596;2022-08-03T09:29:05;35.30;83.50
21662;DHT22;10992;48.170;8.596;2022-08-03T09:31:42;34.90;84.40
21662;DHT22;10992;48.170;8.596;2022-08-03T09:34:12;34.40;83.40
21662;DHT22;10992;48.170;8.596;2022-08-03T09:36:50;35.40;82.00
21662;DHT22;10992;48.170;8.596;2022-08-03T09:39:21;36.10;80.30
21662;DHT22;10992;48.170;8.596;2022-08-03T09:42:16;34.80;80.50
21662;DHT22;10992;48.170;8.596;2022-08-03T09:44:46;34.50;80.70
21662;DHT22;10992;48.170;8.596;2022-08-03T09:47:27;33.80;83.40
21662;DHT22;10992;48.170;8.596;2022-08-03T09:50:01;34.70;82.60
21662;DHT22;10992;48.170;8.596;2022-08-03T09:52:39;35.50;81.20
21662;DHT22;10992;48.170;8.596;2022-08-03T09:55:18;35.10;81.50
21662;DHT22;10992;48.170;8.596;2022-08-03T09:58:06;34.40;80.20
21662;DHT22;10992;48.170;8.596;2022-08-03T10:03:23;35.10;80.30
21662;DHT22;10992;48.170;8.596;2022-08-03T10:05:50;34.30;80.30
21662;DHT22;10992;48.170;8.596;2022-08-03T10:08:23;34.10;79.40
21662;DHT22;10992;48.170;8.596;2022-08-03T10:10:51;33.40;82.00
21662;DHT22;10992;48.170;8.596;2022-08-03T10:13:23;34.00;82.00
21662;DHT22;10992;48.170;8.596;2022-08-03T10:15:50;35.20;80.00
21662;DHT22;10992;48.170;8.596;2022-08-03T10:18:37;36.30;78.20
21662;DHT22;10992;48.170;8.596;2022-08-03T10:21:07;36.50;77.50
21662;DHT22;10992;48.170;8.596;2022-08-03T10:23:34;36.20;77.20
21662;DHT22;10992;48.170;8.596;2022-08-03T10:26:02;36.10;77.70
21662;DHT22;10992;48.170;8.596;2022-08-03T10:28:39;36.20;77.80
21662;DHT22;10992;48.170;8.596;2022-08-03T10:31:12;35.80;76.30
21662;DHT22;10992;48.170;8.596;2022-08-03T10:33:47;35.20;77.70
21662;DHT22;10992;48.170;8.596;2022-08-03T10:36:23;35.80;78.40
21662;DHT22;10992;48.170;8.596;2022-08-03T10:38:51;34.80;78.00
21662;DHT22;10992;48.170;8.596;2022-08-03T10:41:20;34.80;77.00
21662;DHT22;10992;48.170;8.596;2022-08-03T10:44:36;34.90;79.00
21662;DHT22;10992;48.170;8.596;2022-08-03T10:46:40;36.00;76.60
21662;DHT22;10992;48.170;8.596;2022-08-03T10:49:15;35.90;75.70
21662;DHT22;10992;48.170;8.596;2022-08-03T10:51:59;35.20;76.90
21662;DHT22;10992;48.170;8.596;2022-08-03T10:54:37;34.60;77.60
21662;DHT22;10992;48.170;8.596;2022-08-03T10:57:51;33.90;80.00
21662;DHT22;10992;48.170;8.596;2022-08-03T11:00:26;34.70;77.30
21662;DHT22;10992;48.170;8.596;2022-08-03T11:03:10;34.50;77.90
21662;DHT22;10992;48.170;8.596;2022-08-03T11:05:42;34.70;78.00
21662;DHT22;10992;48.170;8.596;2022-08-03T11:10:52;34.40;78.10
21662;DHT22;10992;48.170;8.596;2022-08-03T11:13:21;34.40;78.10
21662;DHT22;10992;48.170;8.596;2022-08-03T11:15:50;34.20;78.30
21662;DHT22;10992;48.170;8.596;2022-08-03T11:18:18;33.70;77.90
21662;DHT22;10992;48.170;8.596;2022-08-03T11:20:57;32.90;80.50
21662;DHT22;10992;48.170;8.596;2022-08-03T11:23:47;33.40;80.10
21662;DHT22;10992;48.170;8.596;2022-08-03T11:26:38;34.20;79.20
21662;DHT22;10992;48.170;8.596;2022-08-03T11:29:28;34.80;78.90
21662;DHT22;10992;48.170;8.596;2022-08-03T11:32:09;34.20;79.10
21662;DHT22;10992;48.170;8.596;2022-08-03T11:35:09;34.40;77.90
21662;DHT22;10992;48.170;8.596;2022-08-03T11:40:53;33.80;79.60
21662;DHT22;10992;48.170;8.596;2022-08-03T11:46:11;35.80;77.70
21662;DHT22;10992;48.170;8.596;2022-08-03T11:49:03;36.50;74.50
21662;DHT22;10992;48.170;8.596;2022-08-03T11:51:35;35.60;75.40
21662;DHT22;10992;48.170;8.596;2022-08-03T11:54:10;34.20;76.20
21662;DHT22;10992;48.170;8.596;2022-08-03T11:56:45;33.70;76.90
21662;DHT22;10992;48.170;8.596;2022-08-03T11:59:31;33.50;77.60
21662;DHT22;10992;48.170;8.596;2022-08-03T12:02:27;34.30;76.70
21662;DHT22;10992;48.170;8.596;2022-08-03T12:04:59;34.80;75.20
21662;DHT22;10992;48.170;8.596;2022-08-03T12:07:28;34.60;76.50
21662;DHT22;10992;48.170;8.596;2022-08-03T12:10:16;34.70;76.20
21662;DHT22;10992;48.170;8.596;2022-08-03T12:12:44;34.10;75.80
21662;DHT22;10992;48.170;8.596;2022-08-03T12:15:13;32.80;78.30
21662;DHT22;10992;48.170;8.596;2022-08-03T12:17:43;32.70;78.40
21662;DHT22;10992;48.170;8.596;2022-08-03T12:20:24;33.50;79.00
21662;DHT22;10992;48.170;8.596;2022-08-03T12:23:04;34.10;78.20
21662;DHT22;10992;48.170;8.596;2022-08-03T12:25:32;34.00;78.60
21662;DHT22;10992;48.170;8.596;2022-08-03T12:28:20;34.50;76.20
21662;DHT22;10992;48.170;8.596;2022-08-03T12:31:05;34.70;76.70
21662;DHT22;10992;48.170;8.596;2022-08-03T12:36:25;34.20;76.50
21662;DHT22;10992;48.170;8.596;2022-08-03T12:38:57;34.20;75.00
21662;DHT22;10992;48.170;8.596;2022-08-03T12:41:36;34.80;75.40
21662;DHT22;10992;48.170;8.596;2022-08-03T12:44:05;34.60;74.20
21662;DHT22;10992;48.170;8.596;2022-08-03T12:46:37;33.90;74.00
21662;DHT22;10992;48.170;8.596;2022-08-03T12:49:12;34.20;75.60
21662;DHT22;10992;48.170;8.596;2022-08-03T12:54:22;35.40;72.50
21662;DHT22;10992;48.170;8.596;2022-08-03T12:57:10;35.30;72.80
21662;DHT22;10992;48.170;8.596;2022-08-03T12:59:44;34.70;72.70
21662;DHT22;10992;48.170;8.596;2022-08-03T13:02:23;34.60;73.80
21662;DHT22;10992;48.170;8.596;2022-08-03T13:04:53;34.40;73.00
21662;DHT22;10992;48.170;8.596;2022-08-03T13:07:20;35.00;73.80
21662;DHT22;10992;48.170;8.596;2022-08-03T13:12:16;34.30;75.20
21662;DHT22;10992;48.170;8.596;2022-08-03T13:14:46;34.40;75.30
21662;DHT22;10992;48.170;8.596;2022-08-03T13:17:13;34.50;76.70
21662;DHT22;10992;48.170;8.596;2022-08-03T13:19:42;34.50;74.90
21662;DHT22;10992;48.170;8.596;2022-08-03T13:22:18;33.90;74.50
21662;DHT22;10992;48.170;8.596;2022-08-03T13:24:47;33.40;76.40
21662;DHT22;10992;48.170;8.596;2022-08-03T13:27:15;34.20;75.90
21662;DHT22;10992;48.170;8.596;2022-08-03T13:30:03;34.90;73.40
21662;DHT22;10992;48.170;8.596;2022-08-03T13:32:30;35.10;74.20
21662;DHT22;10992;48.170;8.596;2022-08-03T13:34:58;35.50;73.70
21662;DHT22;10992;48.170;8.596;2022-08-03T13:37:25;35.60;72.70
21662;DHT22;10992;48.170;8.596;2022-08-03T13:39:52;35.40;72.30
21662;DHT22;10992;48.170;8.596;2022-08-03T13:42:30;35.30;74.20
21662;DHT22;10992;48.170;8.596;2022-08-03T13:44:58;35.00;73.70
21662;DHT22;10992;48.170;8.596;2022-08-03T13:47:25;34.70;74.10
21662;DHT22;10992;48.170;8.596;2022-08-03T13:49:52;34.60;73.90
21662;DHT22;10992;48.170;8.596;2022-08-03T13:52:32;34.70;74.00
21662;DHT22;10992;48.170;8.596;2022-08-03T13:55:01;34.70;74.70
21662;DHT22;10992;48.170;8.596;2022-08-03T13:57:29;34.80;74.20
21662;DHT22;10992;48.170;8.596;2022-08-03T14:00:17;34.20;73.90
21662;DHT22;10992;48.170;8.596;2022-08-03T14:02:59;34.30;74.60
21662;DHT22;10992;48.170;8.596;2022-08-03T14:05:42;35.00;74.60
21662;DHT22;10992;48.170;8.596;2022-08-03T14:08:10;35.30;72.90
21662;DHT22;10992;48.170;8.596;2022-08-03T14:10:38;34.80;72.80
21662;DHT22;10992;48.170;8.596;2022-08-03T14:13:06;34.50;72.00
21662;DHT22;10992;48.170;8.596;2022-08-03T14:15:34;34.10;72.50
21662;DHT22;10992;48.170;8.596;2022-08-03T14:18:07;34.20;73.20
21662;DHT22;10992;48.170;8.596;2022-08-03T14:20:42;34.70;73.20
21662;DHT22;10992;48.170;8.596;2022-08-03T14:23:17;35.30;72.10
21662;DHT22;10992;48.170;8.596;2022-08-03T14:25:44;35.70;71.10
21662;DHT22;10992;48.170;8.596;2022-08-03T14:28:21;36.00;69.30
21662;DHT22;10992;48.170;8.596;2022-08-03T14:30:53;35.30;69.40
21662;DHT22;10992;48.170;8.596;2022-08-03T14:33:21;35.30;71.10
21662;DHT22;10992;48.170;8.596;2022-08-03T14:35:50;35.60;72.20
21662;DHT22;10992;48.170;8.596;2022-08-03T14:38:17;34.70;70.10
21662;DHT22;10992;48.170;8.596;2022-08-03T14:40:44;34.70;72.40
21662;DHT22;10992;48.170;8.596;2022-08-03T14:43:11;34.70;71.30
21662;DHT22;10992;48.170;8.596;2022-08-03T14:45:39;34.70;72.00
21662;DHT22;10992;48.170;8.596;2022-08-03T14:48:06;33.90;71.20
21662;DHT22;10992;48.170;8.596;2022-08-03T14:50:53;34.00;71.80
21662;DHT22;10992;48.170;8.596;2022-08-03T14:53:21;33.50;73.10
21662;DHT22;10992;48.170;8.596;2022-08-03T14:55:48;33.80;72.50
21662;DHT22;10992;48.170;8.596;2022-08-03T14:58:26;33.70;71.70
21662;DHT22;10992;48.170;8.596;2022-08-03T15:00:54;33.50;72.20
21662;DHT22;10992;48.170;8.596;2022-08-03T15:03:22;33.70;72.30
21662;DHT22;10992;48.170;8.596;2022-08-03T15:05:52;33.90;72.00
21662;DHT22;10992;48.170;8.596;2022-08-03T15:08:20;34.00;72.50
21662;DHT22;10992;48.170;8.596;2022-08-03T15:10:48;33.50;71.50
21662;DHT22;10992;48.170;8.596;2022-08-03T15:13:16;33.30;72.90
21662;DHT22;10992;48.170;8.596;2022-08-03T15:15:43;33.10;72.20
21662;DHT22;10992;48.170;8.596;2022-08-03T15:18:10;33.50;72.50
21662;DHT22;10992;48.170;8.596;2022-08-03T15:20:37;33.90;71.50
21662;DHT22;10992;48.170;8.596;2022-08-03T15:23:13;33.90;71.20
21662;DHT22;10992;48.170;8.596;2022-08-03T15:25:40;34.00;71.40
21662;DHT22;10992;48.170;8.596;2022-08-03T15:28:28;33.90;72.80
21662;DHT22;10992;48.170;8.596;2022-08-03T15:30:55;33.30;72.10
21662;DHT22;10992;48.170;8.596;2022-08-03T15:33:22;32.90;72.30
21662;DHT22;10992;48.170;8.596;2022-08-03T15:35:49;33.00;74.00
21662;DHT22;10992;48.170;8.596;2022-08-03T15:38:16;33.10;74.30
21662;DHT22;10992;48.170;8.596;2022-08-03T15:40:43;32.80;73.30
21662;DHT22;10992;48.170;8.596;2022-08-03T15:43:10;32.90;73.60
21662;DHT22;10992;48.170;8.596;2022-08-03T15:45:37;32.90;72.50
21662;DHT22;10992;48.170;8.596;2022-08-03T15:48:05;32.90;72.00
21662;DHT22;10992;48.170;8.596;2022-08-03T15:50:32;32.80;72.40
21662;DHT22;10992;48.170;8.596;2022-08-03T15:52:59;32.60;72.50
21662;DHT22;10992;48.170;8.596;2022-08-03T15:55:26;32.40;72.60
21662;DHT22;10992;48.170;8.596;2022-08-03T15:57:53;32.30;74.80
21662;DHT22;10992;48.170;8.596;2022-08-03T16:00:41;32.40;72.80
21662;DHT22;10992;48.170;8.596;2022-08-03T16:03:09;32.70;72.30
21662;DHT22;10992;48.170;8.596;2022-08-03T16:05:36;33.10;73.20
21662;DHT22;10992;48.170;8.596;2022-08-03T16:08:03;33.20;73.90
21662;DHT22;10992;48.170;8.596;2022-08-03T16:10:35;33.40;73.40
21662;DHT22;10992;48.170;8.596;2022-08-03T16:13:02;33.40;73.30
21662;DHT22;10992;48.170;8.596;2022-08-03T16:15:29;33.00;71.80
21662;DHT22;10992;48.170;8.596;2022-08-03T16:17:56;32.70;73.20
21662;DHT22;10992;48.170;8.596;2022-08-03T16:20:23;32.40;72.00
21662;DHT22;10992;48.170;8.596;2022-08-03T16:23:01;32.20;73.00
21662;DHT22;10992;48.170;8.596;2022-08-03T16:25:39;32.30;73.60
21662;DHT22;10992;48.170;8.596;2022-08-03T16:28:07;32.10;75.50